Time,TemperatureF,DewpointF,PressureIn,WindDirection,WindDirectionDegrees,WindSpeedMPH,WindSpeedGustMPH,Humidity,HourlyPrecipIn,Conditions,Clouds,dailyrainin,SoftwareType,DateUTC
2013-08-22 00:02:00,60.6,50.5,29.83,SSW,202,0.0,0.0,69,0.00,,,0.00,LWC V2.10 B1813,2013-08-22 07:02:00,
2013-08-22 00:07:00,60.6,50.5,29.83,SW,225,0.0,0.0,69,0.00,,,0.00,LWC V2.10 B1813,2013-08-22 07:07:00,
2013-08-22 00:12:00,60.4,50.3,29.83,WNW,292,0.0,0.0,69,0.00,,,0.00,LWC V2.10 B1813,2013-08-22 07:12:00,
2013-08-22 00:17:00,60.4,50.3,29.83,NW,315,0.0,0.0,69,0.00,,,0.00,LWC V2.10 B1813,2013-08-22 07:17:00,
2013-08-22 00:22:00,60.4,50.3,29.83,WNW,292,0.0,0.0,69,0.00,,,0.00,LWC V2.10 B1813,2013-08-22 07:22:00,
2013-08-22 00:27:00,60.4,50.3,29.83,WNW,292,0.0,0.0,69,0.00,,,0.00,LWC V2.10 B1813,2013-08-22 07:27:00,
2013-08-22 00:32:00,60.4,50.3,29.84,NW,315,0.0,0.0,69,0.00,,,0.00,LWC V2.10 B1813,2013-08-22 07:32:00,
2013-08-22 00:37:00,60.4,50.3,29.83,WNW,292,0.0,0.0,69,0.00,,,0.00,LWC V2.10 B1813,2013-08-22 07:37:00,
2013-08-22 00:42:00,60.4,50.3,29.83,WNW,292,0.0,0.0,69,0.00,,,0.00,LWC V2.10 B1813,2013-08-22 07:42:00,
2013-08-22 00:47:00,60.4,50.3,29.83,NW,315,0.0,0.0,69,0.00,,,0.00,LWC V2.10 B1813,2013-08-22 07:47:00,
2013-08-22 00:52:00,60.1,49.9,29.83,NW,315,0.0,0.0,69,0.00,,,0.00,LWC V2.10 B1813,2013-08-22 07:52:00,
2013-08-22 00:57:00,60.1,49.9,29.83,NW,315,0.0,0.0,69,0.00,,,0.00,LWC V2.10 B1813,2013-08-22 07:57:00,
2013-08-22 01:02:00,60.1,50.4,29.83,NW,315,0.0,0.0,70,0.00,,,0.00,LWC V2.10 B1813,2013-08-22 08:02:00,
2013-08-22 01:07:00,60.1,50.4,29.83,NW,315,0.0,0.0,70,0.00,,,0.00,LWC V2.10 B1813,2013-08-22 08:07:00,
2013-08-22 01:12:00,59.9,50.2,29.83,West,270,0.0,0.0,70,0.00,,,0.00,LWC V2.10 B1813,2013-08-22 08:12:00,
2013-08-22 01:17:00,59.9,50.2,29.83,West,270,0.0,0.0,70,0.00,,,0.00,LWC V2.10 B1813,2013-08-22 08:17:00,
2013-08-22 01:22:00,59.7,50.0,29.83,West,270,0.0,0.0,70,0.00,,,0.00,LWC V2.10 B1813,2013-08-22 08:22:00,
2013-08-22 01:27:00,59.7,50.0,29.83,West,270,0.0,0.0,70,0.00,,,0.00,LWC V2.10 B1813,2013-08-22 08:27:00,
2013-08-22 01:32:00,59.7,50.0,29.83,West,270,0.0,0.0,70,0.00,,,0.00,LWC V2.10 B1813,2013-08-22 08:32:00,
2013-08-22 01:37:00,59.7,50.0,29.83,West,270,0.0,0.0,70,0.00,,,0.00,LWC V2.10 B1813,2013-08-22 08:37:00,
2013-08-22 01:42:00,59.7,50.0,29.82,West,270,0.0,0.0,70,0.00,,,0.00,LWC V2.10 B1813,2013-08-22 08:42:00,
2013-08-22 01:47:00,59.7,50.0,29.83,WSW,247,0.0,0.0,70,0.00,,,0.00,LWC V2.10 B1813,2013-08-22 08:47:00,
2013-08-22 01:52:00,59.9,50.2,29.83,WSW,247,0.0,0.0,70,0.00,,,0.00,LWC V2.10 B1813,2013-08-22 08:52:00,
2013-08-22 01:57:00,59.9,50.2,29.83,WSW,247,0.0,0.0,70,0.00,,,0.00,LWC V2.10 B1813,2013-08-22 08:57:00,
2013-08-22 02:02:00,59.9,50.2,29.82,WSW,247,0.0,0.0,70,0.00,,,0.00,LWC V2.10 B1813,2013-08-22 09:02:00,
2013-08-22 02:07:00,59.7,50.0,29.82,WSW,247,0.0,0.0,70,0.00,,,0.00,LWC V2.10 B1813,2013-08-22 09:07:00,
2013-08-22 02:12:00,59.7,50.0,29.82,WSW,247,0.0,0.0,70,0.00,,,0.00,LWC V2.10 B1813,2013-08-22 09:12:00,
2013-08-22 02:17:00,59.5,49.8,29.82,WSW,247,0.0,0.0,70,0.00,,,0.00,LWC V2.10 B1813,2013-08-22 09:17:00,
2013-08-22 02:22:00,59.5,49.8,29.82,NNW,337,0.0,0.0,70,0.00,,,0.00,LWC V2.10 B1813,2013-08-22 09:22:00,
2013-08-22 02:27:00,59.5,50.2,29.82,NNW,337,0.0,0.0,71,0.00,,,0.00,LWC V2.10 B1813,2013-08-22 09:27:00,
2013-08-22 02:32:00,59.4,50.0,29.82,WNW,292,0.0,0.0,71,0.00,,,0.00,LWC V2.10 B1813,2013-08-22 09:32:00,
2013-08-22 02:37:00,59.2,49.8,29.82,NNW,337,0.0,0.0,71,0.00,,,0.00,LWC V2.10 B1813,2013-08-22 09:37:00,
2013-08-22 02:42:00,58.8,49.5,29.82,NW,315,0.0,0.0,71,0.00,,,0.00,LWC V2.10 B1813,2013-08-22 09:42:00,
2013-08-22 02:47:00,58.8,49.5,29.82,NW,315,0.0,0.0,71,0.00,,,0.00,LWC V2.10 B1813,2013-08-22 09:47:00,
2013-08-22 02:52:00,58.8,49.5,29.83,NW,315,0.0,0.0,71,0.00,,,0.00,LWC V2.10 B1813,2013-08-22 09:52:00,
2013-08-22 02:57:00,58.8,49.8,29.83,NW,315,0.0,0.0,72,0.00,,,0.00,LWC V2.10 B1813,2013-08-22 09:57:00,
2013-08-22 03:02:00,58.8,49.8,29.83,NW,315,0.0,0.0,72,0.00,,,0.00,LWC V2.10 B1813,2013-08-22 10:02:00,
2013-08-22 03:07:00,58.8,49.8,29.83,NNW,337,0.0,0.0,72,0.00,,,0.00,LWC V2.10 B1813,2013-08-22 10:07:00,
2013-08-22 03:12:00,58.8,49.8,29.83,NNW,337,0.0,0.0,72,0.00,,,0.00,LWC V2.10 B1813,2013-08-22 10:12:00,
2013-08-22 03:17:00,58.8,49.8,29.83,NNW,337,0.0,0.0,72,0.00,,,0.00,LWC V2.10 B1813,2013-08-22 10:17:00,
2013-08-22 03:22:00,58.6,49.6,29.83,NNW,337,0.0,0.0,72,0.00,,,0.00,LWC V2.10 B1813,2013-08-22 10:22:00,
2013-08-22 03:27:00,58.6,49.6,29.83,NNW,337,0.0,0.0,72,0.00,,,0.00,LWC V2.10 B1813,2013-08-22 10:27:00,
2013-08-22 03:32:00,58.3,49.3,29.83,NNE,22,0.0,0.0,72,0.00,,,0.00,LWC V2.10 B1813,2013-08-22 10:32:00,
2013-08-22 03:37:00,58.1,49.3,29.83,NNW,337,0.0,0.0,73,0.00,,,0.00,LWC V2.10 B1813,2013-08-22 10:37:00,
2013-08-22 03:42:00,57.9,49.3,29.84,NW,315,0.0,0.0,73,0.00,,,0.00,LWC V2.10 B1813,2013-08-22 10:42:00,
2013-08-22 03:47:00,57.9,49.3,29.84,NW,315,0.0,0.0,73,0.00,,,0.00,LWC V2.10 B1813,2013-08-22 10:47:00,
2013-08-22 05:27:00,57.7,49.5,29.84,NW,315,0.0,0.0,74,0.00,,,0.00,LWC V2.10 B1813,2013-08-22 12:27:00,
2013-08-22 05:32:00,57.6,49.3,29.84,North,0,0.0,0.0,74,0.00,,,0.00,LWC V2.10 B1813,2013-08-22 12:32:00,
2013-08-22 05:37:00,57.4,49.1,29.84,NNW,337,0.0,0.0,74,0.00,,,0.00,LWC V2.10 B1813,2013-08-22 12:37:00,
2013-08-22 05:42:00,57.0,49.1,29.84,NNW,337,0.0,0.0,75,0.00,,,0.00,LWC V2.10 B1813,2013-08-22 12:42:00,
2013-08-22 05:47:00,57.0,49.1,29.84,NNW,337,0.0,0.0,75,0.00,,,0.00,LWC V2.10 B1813,2013-08-22 12:47:00,
2013-08-22 05:52:00,56.8,49.3,29.83,NNW,337,0.0,0.0,76,0.00,,,0.00,LWC V2.10 B1813,2013-08-22 12:52:00,
2013-08-22 05:57:00,56.8,49.3,29.83,NNW,337,0.0,0.0,76,0.00,,,0.00,LWC V2.10 B1813,2013-08-22 12:57:00,
2013-08-22 06:01:00,56.8,49.3,29.84,NNW,337,0.0,0.0,76,0.00,,,0.00,LWC V2.10 B1813,2013-08-22 13:01:00,
2013-08-22 06:06:00,57.0,49.5,29.84,NNW,337,0.0,0.0,76,0.00,,,0.00,LWC V2.10 B1813,2013-08-22 13:06:00,
2013-08-22 06:11:00,57.2,49.3,29.84,North,0,0.0,0.0,75,0.00,,,0.00,LWC V2.10 B1813,2013-08-22 13:11:00,
2013-08-22 06:16:00,57.4,49.5,29.84,North,0,0.0,0.0,75,0.00,,,0.00,LWC V2.10 B1813,2013-08-22 13:16:00,
2013-08-22 06:21:00,57.4,49.5,29.84,NNW,337,0.0,0.0,75,0.00,,,0.00,LWC V2.10 B1813,2013-08-22 13:21:00,
2013-08-22 06:26:00,57.6,49.6,29.84,North,0,0.0,0.0,75,0.00,,,0.00,LWC V2.10 B1813,2013-08-22 13:26:00,
2013-08-22 06:31:00,57.6,49.6,29.84,North,0,0.0,0.0,75,0.00,,,0.00,LWC V2.10 B1813,2013-08-22 13:31:00,
2013-08-22 06:36:00,57.6,49.6,29.84,North,0,0.0,0.0,75,0.00,,,0.00,LWC V2.10 B1813,2013-08-22 13:36:00,
2013-08-22 06:41:00,57.7,49.8,29.85,North,0,0.0,0.0,75,0.00,,,0.00,LWC V2.10 B1813,2013-08-22 13:41:00,
2013-08-22 06:46:00,57.6,49.3,29.85,NNE,22,0.0,0.0,74,0.00,,,0.00,LWC V2.10 B1813,2013-08-22 13:46:00,
2013-08-22 06:51:00,57.6,49.3,29.85,NNE,22,0.0,0.0,74,0.00,,,0.00,LWC V2.10 B1813,2013-08-22 13:51:00,
2013-08-22 06:56:00,57.7,49.5,29.85,NNE,22,0.0,0.0,74,0.00,,,0.00,LWC V2.10 B1813,2013-08-22 13:56:00,
2013-08-22 07:01:00,57.7,49.5,29.85,NW,315,0.0,0.0,74,0.00,,,0.00,LWC V2.10 B1813,2013-08-22 14:01:00,
2013-08-22 07:06:00,57.9,49.6,29.86,NW,315,0.0,0.0,74,0.00,,,0.00,LWC V2.10 B1813,2013-08-22 14:06:00,
2013-08-22 07:11:00,57.7,49.5,29.86,North,0,0.0,0.0,74,0.00,,,0.00,LWC V2.10 B1813,2013-08-22 14:11:00,
2013-08-22 07:16:00,57.9,49.6,29.86,NNW,337,0.0,0.0,74,0.00,,,0.00,LWC V2.10 B1813,2013-08-22 14:16:00,
2013-08-22 07:21:00,57.9,49.6,29.86,North,0,0.0,0.0,74,0.00,,,0.00,LWC V2.10 B1813,2013-08-22 14:21:00,
2013-08-22 07:26:00,57.9,49.6,29.86,NW,315,0.0,0.0,74,0.00,,,0.00,LWC V2.10 B1813,2013-08-22 14:26:00,
2013-08-22 07:31:00,57.9,49.6,29.86,NW,315,0.0,0.0,74,0.00,,,0.00,LWC V2.10 B1813,2013-08-22 14:31:00,
2013-08-22 07:36:00,58.1,49.8,29.86,NNE,22,0.0,0.0,74,0.00,,,0.00,LWC V2.10 B1813,2013-08-22 14:36:00,
2013-08-22 07:41:00,58.1,49.8,29.86,North,0,0.0,0.0,74,0.00,,,0.00,LWC V2.10 B1813,2013-08-22 14:41:00,
2013-08-22 07:46:00,58.1,49.8,29.86,North,0,0.0,0.0,74,0.00,,,0.00,LWC V2.10 B1813,2013-08-22 14:46:00,
2013-08-22 07:51:00,58.1,49.8,29.87,NNE,22,0.0,0.0,74,0.00,,,0.00,LWC V2.10 B1813,2013-08-22 14:51:00,
2013-08-22 07:56:00,58.3,50.0,29.87,NE,45,0.0,0.0,74,0.00,,,0.00,LWC V2.10 B1813,2013-08-22 14:56:00,
2013-08-22 08:01:00,58.3,50.0,29.87,North,0,0.0,0.0,74,0.00,,,0.00,LWC V2.10 B1813,2013-08-22 15:01:00,
2013-08-22 08:06:00,58.3,50.0,29.87,NNW,337,0.0,0.0,74,0.00,,,0.00,LWC V2.10 B1813,2013-08-22 15:06:00,
2013-08-22 08:11:00,58.6,50.4,29.88,NW,315,0.0,0.0,74,0.00,,,0.00,LWC V2.10 B1813,2013-08-22 15:11:00,
2013-08-22 08:16:00,58.6,50.4,29.88,North,0,0.0,0.0,74,0.00,,,0.00,LWC V2.10 B1813,2013-08-22 15:16:00,
2013-08-22 08:21:00,58.6,50.4,29.88,SE,135,0.0,0.0,74,0.00,,,0.00,LWC V2.10 B1813,2013-08-22 15:21:00,
2013-08-22 08:26:00,58.6,50.4,29.88,North,0,0.0,3.1,74,0.00,,,0.00,LWC V2.10 B1813,2013-08-22 15:26:00,
2013-08-22 08:31:00,58.8,50.5,29.88,WNW,292,0.0,0.0,74,0.00,,,0.00,LWC V2.10 B1813,2013-08-22 15:31:00,
2013-08-22 08:36:00,58.8,50.5,29.88,North,0,0.0,0.0,74,0.00,,,0.00,LWC V2.10 B1813,2013-08-22 15:36:00,
2013-08-22 08:41:00,58.8,50.2,29.88,ENE,67,0.0,2.5,73,0.00,,,0.00,LWC V2.10 B1813,2013-08-22 15:41:00,
2013-08-22 08:46:00,59.2,50.5,29.89,ENE,67,0.0,0.0,73,0.00,,,0.00,LWC V2.10 B1813,2013-08-22 15:46:00,
2013-08-22 08:51:00,59.5,50.9,29.89,WSW,247,0.0,0.0,73,0.00,,,0.00,LWC V2.10 B1813,2013-08-22 15:51:00,
2013-08-22 08:56:00,60.1,51.4,29.88,ESE,112,0.0,0.0,73,0.00,,,0.00,LWC V2.10 B1813,2013-08-22 15:56:00,
2013-08-22 09:01:00,60.4,51.4,29.89,NE,45,0.0,0.0,72,0.00,,,0.00,LWC V2.10 B1813,2013-08-22 16:01:00,
2013-08-22 09:06:00,60.6,51.6,29.89,SE,135,1.8,1.8,72,0.00,,,0.00,LWC V2.10 B1813,2013-08-22 16:06:00,
2013-08-22 09:11:00,60.6,51.3,29.89,NW,315,5.8,5.8,71,0.00,,,0.00,LWC V2.10 B1813,2013-08-22 16:11:00,
2013-08-22 09:16:00,60.6,50.9,29.89,SSE,157,0.0,0.0,70,0.00,,,0.00,LWC V2.10 B1813,2013-08-22 16:16:00,
2013-08-22 09:21:00,60.6,50.9,29.89,North,0,0.0,0.0,70,0.00,,,0.00,LWC V2.10 B1813,2013-08-22 16:21:00,
2013-08-22 09:26:00,60.6,50.9,29.88,NW,315,1.1,1.1,70,0.00,,,0.00,LWC V2.10 B1813,2013-08-22 16:26:00,
2013-08-22 09:31:00,61.0,51.2,29.89,NNE,22,7.4,7.4,70,0.00,,,0.00,LWC V2.10 B1813,2013-08-22 16:31:00,
2013-08-22 09:36:00,61.3,51.9,29.89,ENE,67,0.0,0.0,71,0.00,,,0.00,LWC V2.10 B1813,2013-08-22 16:36:00,
2013-08-22 09:41:00,61.5,51.7,29.89,North,0,4.7,4.7,70,0.00,,,0.00,LWC V2.10 B1813,2013-08-22 16:41:00,
2013-08-22 09:46:00,62.1,51.8,29.89,NNE,22,0.0,3.6,69,0.00,,,0.00,LWC V2.10 B1813,2013-08-22 16:46:00,
2013-08-22 09:51:00,62.2,52.0,29.89,NNW,337,2.7,2.7,69,0.00,,,0.00,LWC V2.10 B1813,2013-08-22 16:51:00,
2013-08-22 09:56:00,62.4,52.1,29.89,NW,315,0.0,0.0,69,0.00,,,0.00,LWC V2.10 B1813,2013-08-22 16:56:00,
2013-08-22 10:01:00,62.6,51.9,29.90,SSW,202,0.0,0.0,68,0.00,,,0.00,LWC V2.10 B1813,2013-08-22 17:01:00,
2013-08-22 10:06:00,63.0,52.2,29.89,NNW,337,3.6,3.6,68,0.00,,,0.00,LWC V2.10 B1813,2013-08-22 17:06:00,
2013-08-22 10:11:00,63.1,52.4,29.90,South,180,0.0,0.0,68,0.00,,,0.00,LWC V2.10 B1813,2013-08-22 17:11:00,
2013-08-22 10:16:00,63.3,52.1,29.90,NW,315,1.8,1.8,67,0.00,,,0.00,LWC V2.10 B1813,2013-08-22 17:16:00,
2013-08-22 10:21:00,63.7,52.5,29.90,North,0,4.0,4.0,67,0.00,,,0.00,LWC V2.10 B1813,2013-08-22 17:21:00,
2013-08-22 10:26:00,63.7,52.1,29.89,NW,315,8.9,8.9,66,0.00,,,0.00,LWC V2.10 B1813,2013-08-22 17:26:00,
2013-08-22 10:31:00,64.0,52.4,29.89,ENE,67,0.0,3.6,66,0.00,,,0.00,LWC V2.10 B1813,2013-08-22 17:31:00,
2013-08-22 10:36:00,64.2,52.6,29.89,NE,45,0.0,0.0,66,0.00,,,0.00,LWC V2.10 B1813,2013-08-22 17:36:00,
2013-08-22 10:41:00,65.3,53.6,29.89,East,90,0.0,0.0,66,0.00,,,0.00,LWC V2.10 B1813,2013-08-22 17:41:00,
2013-08-22 10:46:00,66.6,54.4,29.89,East,90,0.0,0.0,65,0.00,,,0.00,LWC V2.10 B1813,2013-08-22 17:46:00,
2013-08-22 10:51:00,67.6,54.3,29.89,East,90,2.5,2.5,64,0.00,,,0.00,LWC V2.10 B1813,2013-08-22 17:51:00,
2013-08-22 10:56:00,68.4,54.4,29.89,NNW,337,0.0,1.6,61,0.00,,,0.00,LWC V2.10 B1813,2013-08-22 17:56:00,
2013-08-22 11:01:00,68.5,54.1,29.89,NE,45,1.6,1.6,60,0.00,,,0.00,LWC V2.10 B1813,2013-08-22 18:01:00,
2013-08-22 11:06:00,68.7,54.9,29.89,ENE,67,4.0,4.0,60,0.00,,,0.00,LWC V2.10 B1813,2013-08-22 18:06:00,
2013-08-22 11:11:00,70.0,55.1,29.89,NNW,337,4.2,4.2,59,0.00,,,0.00,LWC V2.10 B1813,2013-08-22 18:11:00,
2013-08-22 11:16:00,70.3,54.9,29.89,NNE,22,0.0,0.0,58,0.00,,,0.00,LWC V2.10 B1813,2013-08-22 18:16:00,
2013-08-22 11:21:00,70.5,55.0,29.89,North,0,0.0,0.0,57,0.00,,,0.00,LWC V2.10 B1813,2013-08-22 18:21:00,
2013-08-22 11:26:00,71.2,55.2,29.88,East,90,1.6,1.6,57,0.00,,,0.00,LWC V2.10 B1813,2013-08-22 18:26:00,
2013-08-22 11:31:00,71.6,55.0,29.88,SSE,157,0.0,0.0,56,0.00,,,0.00,LWC V2.10 B1813,2013-08-22 18:31:00,
2013-08-22 11:36:00,72.0,54.8,29.88,SSW,202,2.7,2.7,55,0.00,,,0.00,LWC V2.10 B1813,2013-08-22 18:36:00,
2013-08-22 11:41:00,72.3,55.1,29.88,ESE,112,5.8,5.8,55,0.00,,,0.00,LWC V2.10 B1813,2013-08-22 18:41:00,
2013-08-22 11:46:00,72.7,55.5,29.88,ENE,67,0.0,0.0,55,0.00,,,0.00,LWC V2.10 B1813,2013-08-22 18:46:00,
2013-08-22 11:51:00,73.0,55.5,29.87,North,0,0.0,0.0,54,0.00,,,0.00,LWC V2.10 B1813,2013-08-22 18:51:00,
2013-08-22 11:56:00,73.6,55.8,29.87,NE,45,1.1,4.9,54,0.00,,,0.00,LWC V2.10 B1813,2013-08-22 18:56:00,
2013-08-22 12:01:00,73.9,55.7,29.87,ESE,112,0.0,0.0,53,0.00,,,0.00,LWC V2.10 B1813,2013-08-22 19:01:00,
2013-08-22 12:06:00,74.3,55.8,29.87,ESE,112,0.0,2.5,53,0.00,,,0.00,LWC V2.10 B1813,2013-08-22 19:06:00,
2013-08-22 12:11:00,74.5,56.2,29.87,NE,45,0.0,0.0,53,0.00,,,0.00,LWC V2.10 B1813,2013-08-22 19:11:00,
2013-08-22 12:16:00,75.0,56.2,29.86,NE,45,1.1,1.1,52,0.00,,,0.00,LWC V2.10 B1813,2013-08-22 19:16:00,
2013-08-22 12:21:00,75.4,56.6,29.86,ESE,112,0.0,3.6,52,0.00,,,0.00,LWC V2.10 B1813,2013-08-22 19:21:00,
2013-08-22 12:26:00,75.7,56.4,29.86,SE,135,0.0,0.0,51,0.00,,,0.00,LWC V2.10 B1813,2013-08-22 19:26:00,
2013-08-22 12:31:00,75.9,56.6,29.86,ESE,112,0.0,0.0,51,0.00,,,0.00,LWC V2.10 B1813,2013-08-22 19:31:00,
2013-08-22 12:36:00,76.6,56.9,29.85,ENE,67,5.4,5.4,51,0.00,,,0.00,LWC V2.10 B1813,2013-08-22 19:36:00,
2013-08-22 12:41:00,76.8,56.9,29.86,SSE,157,0.7,0.7,50,0.00,,,0.00,LWC V2.10 B1813,2013-08-22 19:41:00,
2013-08-22 12:46:00,77.2,57.2,29.86,NE,45,1.6,1.6,50,0.00,,,0.00,LWC V2.10 B1813,2013-08-22 19:46:00,
2013-08-22 12:51:00,77.2,57.2,29.85,NNE,22,0.0,3.8,50,0.00,,,0.00,LWC V2.10 B1813,2013-08-22 19:51:00,
2013-08-22 12:56:00,77.5,57.5,29.85,ENE,67,4.7,4.7,50,0.00,,,0.00,LWC V2.10 B1813,2013-08-22 19:56:00,
2013-08-22 13:01:00,77.5,57.5,29.85,ENE,67,1.1,1.1,50,0.00,,,0.00,LWC V2.10 B1813,2013-08-22 20:01:00,
2013-08-22 13:06:00,77.7,57.2,29.85,NNE,22,1.3,1.3,49,0.00,,,0.00,LWC V2.10 B1813,2013-08-22 20:06:00,
2013-08-22 13:11:00,77.9,57.2,29.85,NE,45,0.0,3.4,49,0.00,,,0.00,LWC V2.10 B1813,2013-08-22 20:11:00,
2013-08-22 13:16:00,77.7,57.1,29.85,ENE,67,0.0,0.0,49,0.00,,,0.00,LWC V2.10 B1813,2013-08-22 20:16:00,
2013-08-22 13:21:00,77.9,57.2,29.85,East,90,6.9,6.9,49,0.00,,,0.00,LWC V2.10 B1813,2013-08-22 20:21:00,
2013-08-22 13:26:00,78.1,56.8,29.84,ENE,67,0.0,6.9,48,0.00,,,0.00,LWC V2.10 B1813,2013-08-22 20:26:00,
2013-08-22 13:31:00,77.5,56.9,29.84,NE,45,4.5,4.5,49,0.00,,,0.00,LWC V2.10 B1813,2013-08-22 20:31:00,
2013-08-22 13:36:00,77.2,56.2,29.85,East,90,4.2,4.2,49,0.00,,,0.00,LWC V2.10 B1813,2013-08-22 20:36:00,
2013-08-22 13:41:00,76.8,56.2,29.84,ENE,67,1.6,1.6,49,0.00,,,0.00,LWC V2.10 B1813,2013-08-22 20:41:00,
2013-08-22 13:46:00,76.8,56.2,29.84,NE,45,0.0,0.0,49,0.00,,,0.00,LWC V2.10 B1813,2013-08-22 20:46:00,
2013-08-22 13:51:00,76.8,56.9,29.84,ENE,67,0.0,0.0,50,0.00,,,0.00,LWC V2.10 B1813,2013-08-22 20:51:00,
2013-08-22 13:56:00,77.2,56.6,29.84,East,90,0.0,0.0,49,0.00,,,0.00,LWC V2.10 B1813,2013-08-22 20:56:00,
2013-08-22 14:01:00,77.7,57.1,29.84,NE,45,0.0,0.0,49,0.00,,,0.00,LWC V2.10 B1813,2013-08-22 21:01:00,
2013-08-22 14:06:00,77.5,56.3,29.84,NE,45,0.9,0.9,48,0.00,,,0.00,LWC V2.10 B1813,2013-08-22 21:06:00,
2013-08-22 14:11:00,77.2,56.6,29.84,ENE,67,4.7,4.7,49,0.00,,,0.00,LWC V2.10 B1813,2013-08-22 21:11:00,
2013-08-22 14:16:00,77.4,56.7,29.84,NE,45,4.9,4.9,49,0.00,,,0.00,LWC V2.10 B1813,2013-08-22 21:16:00,
2013-08-22 14:21:00,77.5,56.4,29.84,ENE,67,1.3,2.2,48,0.00,,,0.00,LWC V2.10 B1813,2013-08-22 21:21:00,
2013-08-22 14:26:00,78.1,56.8,29.84,ESE,112,0.0,3.8,48,0.00,,,0.00,LWC V2.10 B1813,2013-08-22 21:26:00,
2013-08-22 14:31:00,78.6,57.3,29.84,ENE,67,1.3,1.3,48,0.00,,,0.00,LWC V2.10 B1813,2013-08-22 21:31:00,
2013-08-22 14:36:00,79.0,57.6,29.84,NE,45,4.0,4.0,48,0.00,,,0.00,LWC V2.10 B1813,2013-08-22 21:36:00,
2013-08-22 14:41:00,79.2,57.1,29.83,ENE,67,5.4,5.4,47,0.00,,,0.00,LWC V2.10 B1813,2013-08-22 21:41:00,
2013-08-22 14:46:00,79.3,57.3,29.84,ENE,67,4.5,4.5,47,0.00,,,0.00,LWC V2.10 B1813,2013-08-22 21:46:00,
2013-08-22 14:51:00,79.5,57.5,29.84,NE,45,0.0,6.9,47,0.00,,,0.00,LWC V2.10 B1813,2013-08-22 21:51:00,
2013-08-22 14:56:00,79.3,56.7,29.83,NE,45,1.6,1.6,46,0.00,,,0.00,LWC V2.10 B1813,2013-08-22 21:56:00,
2013-08-22 15:01:00,79.0,57.0,29.83,SE,135,0.0,0.0,47,0.00,,,0.00,LWC V2.10 B1813,2013-08-22 22:01:00,
2013-08-22 15:06:00,78.6,56.6,29.83,NE,45,0.0,0.0,47,0.00,,,0.00,LWC V2.10 B1813,2013-08-22 22:06:00,
2013-08-22 15:11:00,78.6,56.6,29.82,East,90,0.0,0.0,47,0.00,,,0.00,LWC V2.10 B1813,2013-08-22 22:11:00,
2013-08-22 15:16:00,78.6,57.3,29.83,NNE,22,0.0,0.0,48,0.00,,,0.00,LWC V2.10 B1813,2013-08-22 22:16:00,
2013-08-22 15:21:00,78.8,56.8,29.83,ENE,67,0.0,10.7,47,0.00,,,0.00,LWC V2.10 B1813,2013-08-22 22:21:00,
2013-08-22 15:26:00,79.0,57.0,29.83,NW,315,0.0,0.0,47,0.00,,,0.00,LWC V2.10 B1813,2013-08-22 22:26:00,
2013-08-22 15:31:00,79.2,56.5,29.83,North,0,0.0,0.0,46,0.00,,,0.00,LWC V2.10 B1813,2013-08-22 22:31:00,
2013-08-22 15:36:00,79.0,56.4,29.83,WNW,292,0.0,0.0,46,0.00,,,0.00,LWC V2.10 B1813,2013-08-22 22:36:00,
2013-08-22 15:41:00,78.6,55.4,29.82,NNW,337,6.9,6.9,45,0.00,,,0.00,LWC V2.10 B1813,2013-08-22 22:41:00,
2013-08-22 15:46:00,78.4,56.5,29.83,SW,225,0.0,0.0,47,0.00,,,0.00,LWC V2.10 B1813,2013-08-22 22:46:00,
2013-08-22 15:51:00,78.3,55.7,29.82,NNW,337,0.0,0.0,46,0.00,,,0.00,LWC V2.10 B1813,2013-08-22 22:51:00,
2013-08-22 15:56:00,77.7,55.2,29.82,NNW,337,0.0,8.7,46,0.00,,,0.00,LWC V2.10 B1813,2013-08-22 22:56:00,
2013-08-22 16:01:00,77.7,55.2,29.83,North,0,6.3,6.3,46,0.00,,,0.00,LWC V2.10 B1813,2013-08-22 23:01:00,
2013-08-22 16:06:00,77.9,56.0,29.82,SSW,202,0.0,0.0,47,0.00,,,0.00,LWC V2.10 B1813,2013-08-22 23:06:00,
2013-08-22 16:11:00,78.1,55.5,29.82,WNW,292,6.3,6.3,46,0.00,,,0.00,LWC V2.10 B1813,2013-08-22 23:11:00,
2013-08-22 16:16:00,77.7,55.2,29.82,WNW,292,0.0,0.0,46,0.00,,,0.00,LWC V2.10 B1813,2013-08-22 23:16:00,
2013-08-22 16:21:00,77.2,54.7,29.82,West,270,6.5,6.5,46,0.00,,,0.00,LWC V2.10 B1813,2013-08-22 23:21:00,
2013-08-22 16:26:00,76.8,54.4,29.82,North,0,3.1,3.1,46,0.00,,,0.00,LWC V2.10 B1813,2013-08-22 23:26:00,
2013-08-22 16:31:00,76.5,54.7,29.82,WNW,292,5.6,5.6,47,0.00,,,0.00,LWC V2.10 B1813,2013-08-22 23:31:00,
2013-08-22 16:36:00,76.1,54.4,29.81,West,270,5.1,6.0,47,0.00,,,0.00,LWC V2.10 B1813,2013-08-22 23:36:00,
2013-08-22 16:41:00,75.9,54.2,29.82,NW,315,0.0,0.0,47,0.00,,,0.00,LWC V2.10 B1813,2013-08-22 23:41:00,
2013-08-22 16:46:00,75.9,54.8,29.82,NNW,337,4.5,4.5,48,0.00,,,0.00,LWC V2.10 B1813,2013-08-22 23:46:00,
2013-08-22 16:51:00,75.7,54.7,29.82,NW,315,0.0,0.0,48,0.00,,,0.00,LWC V2.10 B1813,2013-08-22 23:51:00,
2013-08-22 16:56:00,75.9,54.8,29.82,NW,315,1.1,1.1,48,0.00,,,0.00,LWC V2.10 B1813,2013-08-22 23:56:00,
2013-08-22 17:01:00,75.7,54.7,29.82,NNW,337,3.4,3.4,48,0.00,,,0.00,LWC V2.10 B1813,2013-08-23 00:01:00,
2013-08-22 17:06:00,75.7,54.7,29.81,WSW,247,1.6,1.6,48,0.00,,,0.00,LWC V2.10 B1813,2013-08-23 00:06:00,
2013-08-22 17:11:00,75.7,54.7,29.81,North,0,2.5,5.6,48,0.00,,,0.00,LWC V2.10 B1813,2013-08-23 00:11:00,
2013-08-22 17:16:00,75.7,54.7,29.81,WNW,292,0.7,0.7,48,0.00,,,0.00,LWC V2.10 B1813,2013-08-23 00:16:00,
2013-08-22 17:21:00,75.4,54.3,29.82,NW,315,0.0,4.2,48,0.00,,,0.00,LWC V2.10 B1813,2013-08-23 00:21:00,
2013-08-22 17:26:00,75.0,54.0,29.81,NNW,337,1.1,1.1,48,0.00,,,0.00,LWC V2.10 B1813,2013-08-23 00:26:00,
2013-08-22 17:31:00,75.0,54.6,29.81,North,0,0.0,0.0,49,0.00,,,0.00,LWC V2.10 B1813,2013-08-23 00:31:00,
2013-08-22 17:36:00,74.8,54.4,29.82,North,0,6.0,6.0,49,0.00,,,0.00,LWC V2.10 B1813,2013-08-23 00:36:00,
2013-08-22 17:41:00,74.5,54.1,29.81,West,270,0.0,4.9,49,0.00,,,0.00,LWC V2.10 B1813,2013-08-23 00:41:00,
2013-08-22 17:46:00,74.1,53.7,29.82,NW,315,7.4,7.4,49,0.00,,,0.00,LWC V2.10 B1813,2013-08-23 00:46:00,
2013-08-22 17:51:00,73.9,54.1,29.82,NW,315,0.0,0.0,50,0.00,,,0.00,LWC V2.10 B1813,2013-08-23 00:51:00,
2013-08-22 17:56:00,73.8,54.0,29.81,NW,315,0.0,0.0,50,0.00,,,0.00,LWC V2.10 B1813,2013-08-23 00:56:00,
2013-08-22 18:01:00,73.2,53.4,29.81,NW,315,0.0,0.0,50,0.00,,,0.00,LWC V2.10 B1813,2013-08-23 01:01:00,
2013-08-22 18:06:00,73.0,53.8,29.81,WNW,292,0.0,5.4,51,0.00,,,0.00,LWC V2.10 B1813,2013-08-23 01:06:00,
2013-08-22 18:11:00,72.7,53.5,29.81,NW,315,6.9,6.9,51,0.00,,,0.00,LWC V2.10 B1813,2013-08-23 01:11:00,
2013-08-22 18:16:00,72.1,53.0,29.81,West,270,2.0,2.0,51,0.00,,,0.00,LWC V2.10 B1813,2013-08-23 01:16:00,
2013-08-22 18:21:00,71.8,53.2,29.81,NW,315,4.7,4.7,52,0.00,,,0.00,LWC V2.10 B1813,2013-08-23 01:21:00,
2013-08-22 18:26:00,71.2,53.2,29.81,NW,315,4.7,4.7,53,0.00,,,0.00,LWC V2.10 B1813,2013-08-23 01:26:00,
2013-08-22 18:31:00,70.9,52.8,29.81,NW,315,4.9,4.9,53,0.00,,,0.00,LWC V2.10 B1813,2013-08-23 01:31:00,
2013-08-22 18:36:00,70.7,52.7,29.81,WNW,292,0.0,0.0,53,0.00,,,0.00,LWC V2.10 B1813,2013-08-23 01:36:00,
2013-08-22 18:41:00,70.3,52.9,29.81,NNW,337,0.0,0.0,54,0.00,,,0.00,LWC V2.10 B1813,2013-08-23 01:41:00,
2013-08-22 18:46:00,69.6,52.4,29.81,NW,315,5.1,5.1,54,0.00,,,0.00,LWC V2.10 B1813,2013-08-23 01:46:00,
2013-08-22 18:51:00,68.9,51.5,29.81,NNW,337,0.0,4.5,54,0.00,,,0.00,LWC V2.10 B1813,2013-08-23 01:51:00,
2013-08-22 18:56:00,68.2,51.3,29.81,NNW,337,3.1,3.1,55,0.00,,,0.00,LWC V2.10 B1813,2013-08-23 01:56:00,
2013-08-22 19:01:00,67.8,52.0,29.81,North,0,4.7,4.7,57,0.00,,,0.00,LWC V2.10 B1813,2013-08-23 02:01:00,
2013-08-22 19:06:00,67.3,51.5,29.81,WSW,247,2.7,4.7,57,0.00,,,0.00,LWC V2.10 B1813,2013-08-23 02:06:00,
2013-08-22 19:11:00,66.7,51.5,29.81,NNW,337,4.2,4.2,58,0.00,,,0.00,LWC V2.10 B1813,2013-08-23 02:11:00,
2013-08-22 19:16:00,66.6,51.3,29.81,NNW,337,0.0,0.0,59,0.00,,,0.00,LWC V2.10 B1813,2013-08-23 02:16:00,
2013-08-22 19:21:00,66.0,51.3,29.81,North,0,0.0,5.8,59,0.00,,,0.00,LWC V2.10 B1813,2013-08-23 02:21:00,
2013-08-22 19:26:00,65.3,51.1,29.81,NE,45,1.6,1.6,60,0.00,,,0.00,LWC V2.10 B1813,2013-08-23 02:26:00,
2013-08-22 19:31:00,64.6,50.7,29.81,NW,315,0.0,4.7,60,0.00,,,0.00,LWC V2.10 B1813,2013-08-23 02:31:00,
2013-08-22 19:36:00,64.2,50.4,29.81,NNE,22,0.0,2.5,61,0.00,,,0.00,LWC V2.10 B1813,2013-08-23 02:36:00,
2013-08-22 19:41:00,64.0,50.7,29.81,NW,315,6.7,6.7,62,0.00,,,0.00,LWC V2.10 B1813,2013-08-23 02:41:00,
2013-08-22 19:46:00,63.7,50.8,29.81,NE,45,6.3,6.3,62,0.00,,,0.00,LWC V2.10 B1813,2013-08-23 02:46:00,
2013-08-22 19:51:00,63.3,50.9,29.81,NW,315,0.0,0.0,64,0.00,,,0.00,LWC V2.10 B1813,2013-08-23 02:51:00,
2013-08-22 19:56:00,63.3,50.5,29.81,NW,315,0.0,0.0,63,0.00,,,0.00,LWC V2.10 B1813,2013-08-23 02:56:00,
2013-08-22 20:01:00,63.3,50.5,29.81,NW,315,0.0,0.0,63,0.00,,,0.00,LWC V2.10 B1813,2013-08-23 03:01:00,
2013-08-22 20:06:00,63.1,50.3,29.82,NNW,337,2.2,2.2,63,0.00,,,0.00,LWC V2.10 B1813,2013-08-23 03:06:00,
2013-08-22 20:11:00,63.0,50.5,29.82,NW,315,1.1,1.1,64,0.00,,,0.00,LWC V2.10 B1813,2013-08-23 03:11:00,
2013-08-22 20:16:00,62.4,50.2,29.82,NNW,337,4.2,4.2,64,0.00,,,0.00,LWC V2.10 B1813,2013-08-23 03:16:00,
2013-08-22 20:21:00,62.2,50.3,29.82,WNW,292,0.0,2.0,65,0.00,,,0.00,LWC V2.10 B1813,2013-08-23 03:21:00,
2013-08-22 20:26:00,61.9,50.4,29.83,NNW,337,0.0,0.0,66,0.00,,,0.00,LWC V2.10 B1813,2013-08-23 03:26:00,
2013-08-22 20:31:00,61.5,50.1,29.83,North,0,2.7,5.4,66,0.00,,,0.00,LWC V2.10 B1813,2013-08-23 03:31:00,
2013-08-22 20:36:00,61.3,50.3,29.82,North,0,6.7,6.7,67,0.00,,,0.00,LWC V2.10 B1813,2013-08-23 03:36:00,
2013-08-22 20:41:00,61.0,50.0,29.83,NNW,337,3.1,3.1,67,0.00,,,0.00,LWC V2.10 B1813,2013-08-23 03:41:00,
2013-08-22 20:46:00,60.8,50.0,29.83,NW,315,4.2,4.2,67,0.00,,,0.00,LWC V2.10 B1813,2013-08-23 03:46:00,
2013-08-22 20:51:00,60.6,49.7,29.83,WNW,292,0.0,0.0,67,0.00,,,0.00,LWC V2.10 B1813,2013-08-23 03:51:00,
2013-08-22 20:56:00,60.6,49.7,29.83,NNW,337,0.0,0.0,67,0.00,,,0.00,LWC V2.10 B1813,2013-08-23 03:56:00,
2013-08-22 21:01:00,60.6,50.1,29.84,NW,315,2.9,2.9,68,0.00,,,0.00,LWC V2.10 B1813,2013-08-23 04:01:00,
2013-08-22 21:06:00,60.4,49.9,29.84,NE,45,0.0,1.8,68,0.00,,,0.00,LWC V2.10 B1813,2013-08-23 04:06:00,
2013-08-22 21:11:00,60.4,49.9,29.84,NE,45,0.0,0.0,68,0.00,,,0.00,LWC V2.10 B1813,2013-08-23 04:11:00,
2013-08-22 21:16:00,60.4,49.9,29.84,NNW,337,0.0,0.0,68,0.00,,,0.00,LWC V2.10 B1813,2013-08-23 04:16:00,
2013-08-22 21:21:00,60.4,49.9,29.84,NW,315,0.0,0.0,68,0.00,,,0.00,LWC V2.10 B1813,2013-08-23 04:21:00,
2013-08-22 21:26:00,60.4,49.9,29.84,NNW,337,0.0,0.0,68,0.00,,,0.00,LWC V2.10 B1813,2013-08-23 04:26:00,
2013-08-22 21:31:00,60.4,49.9,29.84,North,0,0.0,0.0,68,0.00,,,0.00,LWC V2.10 B1813,2013-08-23 04:31:00,
2013-08-22 21:36:00,60.4,49.9,29.84,North,0,0.0,0.0,68,0.00,,,0.00,LWC V2.10 B1813,2013-08-23 04:36:00,
2013-08-22 21:41:00,60.4,49.9,29.84,NW,315,0.0,0.0,68,0.00,,,0.00,LWC V2.10 B1813,2013-08-23 04:41:00,
2013-08-22 21:46:00,60.1,49.5,29.84,WNW,292,0.0,0.0,68,0.00,,,0.00,LWC V2.10 B1813,2013-08-23 04:46:00,
2013-08-22 21:51:00,60.1,49.5,29.84,NW,315,0.0,0.0,68,0.00,,,0.00,LWC V2.10 B1813,2013-08-23 04:51:00,
2013-08-22 21:56:00,60.1,49.5,29.84,NW,315,0.0,0.0,68,0.00,,,0.00,LWC V2.10 B1813,2013-08-23 04:56:00,
2013-08-22 22:02:00,60.1,49.5,29.84,NW,315,5.4,5.4,68,0.00,,,0.00,LWC V2.10 B1813,2013-08-23 05:02:00,
2013-08-22 22:07:00,59.7,49.6,29.84,NW,315,6.5,6.5,69,0.00,,,0.00,LWC V2.10 B1813,2013-08-23 05:07:00,
2013-08-22 22:12:00,59.5,49.4,29.84,NNW,337,6.3,6.3,69,0.00,,,0.00,LWC V2.10 B1813,2013-08-23 05:12:00,
2013-08-22 22:17:00,59.4,49.2,29.84,NNW,337,0.0,2.7,69,0.00,,,0.00,LWC V2.10 B1813,2013-08-23 05:17:00,
2013-08-22 22:22:00,59.2,49.5,29.84,NNE,22,0.0,2.7,70,0.00,,,0.00,LWC V2.10 B1813,2013-08-23 05:22:00,
2013-08-22 22:27:00,59.2,49.5,29.83,ESE,112,0.0,0.0,70,0.00,,,0.00,LWC V2.10 B1813,2013-08-23 05:27:00,
2013-08-22 22:32:00,59.4,49.6,29.84,SE,135,0.0,0.0,70,0.00,,,0.00,LWC V2.10 B1813,2013-08-23 05:32:00,
2013-08-22 22:37:00,59.5,49.8,29.84,NE,45,0.0,0.0,70,0.00,,,0.00,LWC V2.10 B1813,2013-08-23 05:37:00,
2013-08-22 22:42:00,59.5,49.8,29.84,NE,45,0.0,0.0,70,0.00,,,0.00,LWC V2.10 B1813,2013-08-23 05:42:00,
2013-08-22 22:47:00,59.5,49.8,29.84,North,0,0.9,0.9,70,0.00,,,0.00,LWC V2.10 B1813,2013-08-23 05:47:00,
2013-08-22 22:52:00,59.4,49.6,29.83,NW,315,0.0,0.0,70,0.00,,,0.00,LWC V2.10 B1813,2013-08-23 05:52:00,
2013-08-22 22:57:00,59.0,49.6,29.84,NW,315,2.0,2.0,71,0.00,,,0.00,LWC V2.10 B1813,2013-08-23 05:57:00,
2013-08-22 23:02:00,58.8,49.5,29.84,NW,315,0.0,3.8,71,0.00,,,0.00,LWC V2.10 B1813,2013-08-23 06:02:00,
2013-08-22 23:07:00,58.8,49.5,29.84,WNW,292,0.0,0.0,71,0.00,,,0.00,LWC V2.10 B1813,2013-08-23 06:07:00,
2013-08-22 23:12:00,58.8,49.8,29.84,West,270,0.0,0.0,72,0.00,,,0.00,LWC V2.10 B1813,2013-08-23 06:12:00,
2013-08-22 23:17:00,58.8,49.8,29.84,North,0,0.0,4.7,72,0.00,,,0.00,LWC V2.10 B1813,2013-08-23 06:17:00,
2013-08-22 23:22:00,58.8,50.2,29.84,NW,315,0.0,0.0,73,0.00,,,0.00,LWC V2.10 B1813,2013-08-23 06:22:00,
2013-08-22 23:27:00,58.6,50.0,29.83,NW,315,4.0,4.0,73,0.00,,,0.00,LWC V2.10 B1813,2013-08-23 06:27:00,
2013-08-22 23:32:00,58.6,50.0,29.83,NNE,22,0.0,0.0,73,0.00,,,0.00,LWC V2.10 B1813,2013-08-23 06:32:00,
2013-08-22 23:37:00,58.6,50.0,29.83,WNW,292,0.0,0.0,73,0.00,,,0.00,LWC V2.10 B1813,2013-08-23 06:37:00,
2013-08-22 23:42:00,58.6,50.0,29.83,WNW,292,0.0,0.0,73,0.00,,,0.00,LWC V2.10 B1813,2013-08-23 06:42:00,
2013-08-22 23:47:00,58.8,50.2,29.83,West,270,0.0,0.0,73,0.00,,,0.00,LWC V2.10 B1813,2013-08-23 06:47:00,
2013-08-22 23:52:00,58.8,50.2,29.84,NNW,337,0.0,0.0,73,0.00,,,0.00,LWC V2.10 B1813,2013-08-23 06:52:00,
2013-08-22 23:57:00,58.8,50.2,29.84,North,0,0.0,0.0,73,0.00,,,0.00,LWC V2.10 B1813,2013-08-23 06:57:00,